createdAt,value
2018-05-04T00:00:32.286Z,9.80
2018-05-04T00:02:59.836Z,9.80
2018-05-04T00:05:27.358Z,9.70
2018-05-04T00:07:54.904Z,9.70
2018-05-04T00:10:22.561Z,9.70
2018-05-04T00:12:50.068Z,9.60
2018-05-04T00:15:17.621Z,9.60
2018-05-04T00:17:45.161Z,9.50
2018-05-04T00:20:12.710Z,9.50
2018-05-04T00:22:40.231Z,9.40
2018-05-04T00:25:07.796Z,9.30
2018-05-04T00:27:35.317Z,9.30
2018-05-04T00:30:02.871Z,9.30
2018-05-04T00:32:30.370Z,9.20
2018-05-04T00:34:57.882Z,9.30
2018-05-04T00:37:25.411Z,9.20
2018-05-04T00:39:52.921Z,9.20
2018-05-04T00:42:20.485Z,9.20
2018-05-04T00:44:48.079Z,9.10
2018-05-04T00:47:15.583Z,9.10
2018-05-04T00:49:43.095Z,9.00
2018-05-04T00:52:11.396Z,9.10
2018-05-04T00:54:38.914Z,9.10
2018-05-04T00:57:06.417Z,9.10
2018-05-04T00:59:33.956Z,9.10
2018-05-04T01:02:02.230Z,9.10
2018-05-04T01:04:29.779Z,9.10
2018-05-04T01:06:57.332Z,9.10
2018-05-04T01:09:24.879Z,9.10
2018-05-04T01:11:52.390Z,9.10
2018-05-04T01:14:19.918Z,9.10
2018-05-04T01:16:47.446Z,9.10
2018-05-04T01:19:14.989Z,9.10
2018-05-04T01:21:42.494Z,9.10
2018-05-04T01:24:10.019Z,9.10
2018-05-04T01:26:37.519Z,9.10
2018-05-04T01:29:05.037Z,9.00
2018-05-04T01:31:32.587Z,8.90
2018-05-04T01:34:00.097Z,9.00
2018-05-04T01:36:27.610Z,8.90
2018-05-04T01:38:55.175Z,8.80
2018-05-04T01:41:22.696Z,8.80
2018-05-04T01:43:50.222Z,8.80
2018-05-04T01:46:17.719Z,8.80
2018-05-04T01:48:45.273Z,8.70
2018-05-04T01:51:12.880Z,8.70
2018-05-04T01:53:40.419Z,8.60
2018-05-04T01:56:07.923Z,8.60
2018-05-04T01:58:35.442Z,8.50
2018-05-04T02:01:03.024Z,8.60
2018-05-04T02:03:30.517Z,8.60
2018-05-04T02:05:58.042Z,8.60
2018-05-04T02:08:25.551Z,8.50
2018-05-04T02:10:53.069Z,8.50
2018-05-04T02:13:20.601Z,8.50
2018-05-04T02:15:48.115Z,8.50
2018-05-04T02:18:15.611Z,8.50
2018-05-04T02:20:43.925Z,8.40
2018-05-04T02:23:11.455Z,8.40
2018-05-04T02:25:38.988Z,8.50
2018-05-04T02:28:06.545Z,8.40
2018-05-04T02:30:34.099Z,8.50
2018-05-04T02:33:01.594Z,8.50
2018-05-04T02:35:29.936Z,8.40
2018-05-04T02:37:57.418Z,8.50
2018-05-04T02:40:25.681Z,8.50
2018-05-04T02:42:53.274Z,8.50
2018-05-04T02:45:20.803Z,8.50
2018-05-04T02:47:48.317Z,8.50
2018-05-04T02:50:15.903Z,8.50
2018-05-04T02:52:43.517Z,8.40
2018-05-04T02:55:11.792Z,8.40
2018-05-04T02:57:40.941Z,8.40
2018-05-04T03:00:08.458Z,8.40
2018-05-04T03:02:35.993Z,8.40
2018-05-04T03:05:04.315Z,8.40
2018-05-04T03:07:31.833Z,8.40
2018-05-04T03:10:00.102Z,8.40
2018-05-04T03:12:28.225Z,8.40
2018-05-04T03:14:55.741Z,8.40
2018-05-04T03:17:23.244Z,8.40
2018-05-04T03:19:50.753Z,8.50
2018-05-04T03:22:18.267Z,8.40
2018-05-04T03:24:45.783Z,8.40
2018-05-04T03:27:13.305Z,8.40
2018-05-04T03:29:40.812Z,8.40
2018-05-04T03:32:09.066Z,8.40
2018-05-04T03:34:36.590Z,8.30
2018-05-04T03:37:04.135Z,8.30
2018-05-04T03:39:31.635Z,8.30
2018-05-04T03:41:59.158Z,8.30
2018-05-04T03:44:26.665Z,8.30
2018-05-04T03:46:55.164Z,8.30
2018-05-04T03:49:23.445Z,8.20
2018-05-04T03:51:51.787Z,8.20
2018-05-04T03:54:19.302Z,8.20
2018-05-04T03:56:47.347Z,8.20
2018-05-04T03:59:26.674Z,8.20
2018-05-04T04:02:06.008Z,8.10
2018-05-04T04:04:33.529Z,8.20
2018-05-04T04:07:01.066Z,8.10
2018-05-04T04:09:28.578Z,8.10
2018-05-04T04:11:56.091Z,8.10
2018-05-04T04:14:23.622Z,8.00
2018-05-04T04:16:51.178Z,8.00
2018-05-04T04:19:18.689Z,8.00
2018-05-04T04:21:46.254Z,8.10
2018-05-04T04:24:14.858Z,8.00
2018-05-04T04:26:42.749Z,8.00
2018-05-04T04:29:10.380Z,8.10
2018-05-04T04:31:37.909Z,8.10
2018-05-04T04:34:05.476Z,8.10
2018-05-04T04:36:33.037Z,8.10
2018-05-04T04:39:00.634Z,8.10
2018-05-04T04:41:29.143Z,8.20
2018-05-04T04:43:56.780Z,8.10
2018-05-04T04:46:24.389Z,8.20
2018-05-04T04:48:52.688Z,8.20
2018-05-04T04:51:20.259Z,8.20
2018-05-04T04:53:47.781Z,8.30
2018-05-04T04:56:15.299Z,8.30
2018-05-04T04:58:42.831Z,8.30
2018-05-04T05:01:10.378Z,8.40
2018-05-04T05:03:37.929Z,8.40
2018-05-04T05:06:05.466Z,8.50
2018-05-04T05:08:32.964Z,8.50
2018-05-04T05:11:01.233Z,8.50
2018-05-04T05:13:29.533Z,8.60
2018-05-04T05:15:57.064Z,8.60
2018-05-04T05:18:24.567Z,8.70
2018-05-04T05:20:52.116Z,8.70
2018-05-04T05:23:19.643Z,8.70
2018-05-04T05:25:47.917Z,8.90
2018-05-04T05:28:16.216Z,9.00
2018-05-04T05:30:43.721Z,9.00
2018-05-04T05:33:11.422Z,9.10
2018-05-04T05:35:41.128Z,9.20
2018-05-04T05:38:08.681Z,9.30
2018-05-04T05:40:36.281Z,9.40
2018-05-04T05:43:03.796Z,9.40
2018-05-04T05:45:31.302Z,9.50
2018-05-04T05:47:58.835Z,9.70
2018-05-04T05:50:27.131Z,9.90
2018-05-04T05:52:54.691Z,9.90
2018-05-04T05:55:22.214Z,9.90
2018-05-04T05:57:49.758Z,10.10
2018-05-04T06:00:17.279Z,10.20
2018-05-04T06:02:44.826Z,10.30
2018-05-04T06:05:12.356Z,10.40
2018-05-04T06:07:39.906Z,10.50
2018-05-04T06:10:07.713Z,10.70
2018-05-04T06:12:35.990Z,10.80
2018-05-04T06:15:04.401Z,10.90
2018-05-04T06:17:31.993Z,10.90
2018-05-04T06:19:59.667Z,11.00
2018-05-04T06:22:27.199Z,11.20
2018-05-04T06:24:54.706Z,11.30
2018-05-04T06:27:22.248Z,11.50
2018-05-04T06:29:49.797Z,11.70
2018-05-04T06:32:17.366Z,11.90
2018-05-04T06:34:45.475Z,12.00
2018-05-04T06:37:12.982Z,12.20
2018-05-04T06:39:40.592Z,12.40
2018-05-04T06:42:08.068Z,12.50
2018-05-04T06:44:35.649Z,12.70
2018-05-04T06:47:03.189Z,12.90
2018-05-04T06:49:30.718Z,12.80
2018-05-04T06:51:58.238Z,12.80
2018-05-04T06:54:25.793Z,12.70
2018-05-04T06:56:53.336Z,12.90
2018-05-04T06:59:20.891Z,13.10
2018-05-04T07:01:48.437Z,13.10
2018-05-04T07:04:15.955Z,13.40
2018-05-04T07:06:43.478Z,13.60
2018-05-04T07:09:11.027Z,13.80
2018-05-04T07:11:39.306Z,14.20
2018-05-04T07:14:06.843Z,14.20
2018-05-04T07:16:34.372Z,14.40
2018-05-04T07:19:01.883Z,14.60
2018-05-04T07:21:30.022Z,14.80
2018-05-04T07:23:57.626Z,14.90
2018-05-04T07:26:25.905Z,15.30
2018-05-04T07:28:54.179Z,15.50
2018-05-04T07:31:21.746Z,15.50
2018-05-04T07:33:49.278Z,15.80
2018-05-04T07:36:16.828Z,16.00
2018-05-04T07:38:44.422Z,15.80
2018-05-04T07:41:11.927Z,15.90
2018-05-04T07:43:39.441Z,16.10
2018-05-04T07:46:07.785Z,16.50
2018-05-04T07:48:35.332Z,16.50
2018-05-04T07:51:02.821Z,16.60
2018-05-04T07:53:30.403Z,16.90
2018-05-04T07:55:57.940Z,16.90
2018-05-04T07:58:25.481Z,17.00
2018-05-04T08:00:53.070Z,16.90
2018-05-04T08:03:20.590Z,17.10
2018-05-04T08:05:48.121Z,17.50
2018-05-04T08:08:15.658Z,17.60
2018-05-04T08:10:43.979Z,17.80
2018-05-04T08:13:11.489Z,17.70
2018-05-04T08:15:39.819Z,18.20
2018-05-04T08:18:07.346Z,18.20
2018-05-04T08:20:34.834Z,18.40
2018-05-04T08:23:02.506Z,18.40
2018-05-04T08:25:30.022Z,18.60
2018-05-04T08:27:57.570Z,18.50
2018-05-04T08:30:25.119Z,18.70
2018-05-04T08:32:52.639Z,18.90
2018-05-04T08:35:20.197Z,19.10
2018-05-04T08:37:47.698Z,19.10
2018-05-04T08:40:15.232Z,19.10
2018-05-04T08:42:42.811Z,19.40
2018-05-04T08:45:10.312Z,19.60
2018-05-04T08:47:38.582Z,19.90
2018-05-04T08:50:06.935Z,20.20
2018-05-04T08:52:34.459Z,20.10
2018-05-04T08:55:01.975Z,20.10
2018-05-04T08:57:29.608Z,20.30
2018-05-04T08:59:57.090Z,20.30
2018-05-04T09:02:25.372Z,20.90
2018-05-04T09:04:53.671Z,21.20
2018-05-04T09:07:21.216Z,21.20
2018-05-04T09:09:48.747Z,21.40
2018-05-04T09:12:16.290Z,21.40
2018-05-04T09:14:43.804Z,21.00
2018-05-04T09:17:12.660Z,21.40
2018-05-04T09:19:40.198Z,21.40
2018-05-04T09:22:07.702Z,21.40
2018-05-04T09:24:36.042Z,21.60
2018-05-04T09:27:03.658Z,21.60
2018-05-04T09:29:31.186Z,21.80
2018-05-04T09:31:58.695Z,21.70
2018-05-04T09:34:26.283Z,21.80
2018-05-04T09:36:54.303Z,21.80
2018-05-04T09:39:22.645Z,21.80
2018-05-04T09:41:50.186Z,21.80
2018-05-04T09:44:17.707Z,22.10
2018-05-04T09:46:45.242Z,22.10
2018-05-04T09:49:12.777Z,22.40
2018-05-04T09:51:40.286Z,22.60
2018-05-04T09:54:07.795Z,22.60
2018-05-04T09:56:35.339Z,22.60
2018-05-04T09:59:02.875Z,22.60
2018-05-04T10:01:31.260Z,22.80
2018-05-04T10:03:59.560Z,23.00
2018-05-04T10:06:27.062Z,23.00
2018-05-04T10:08:54.605Z,23.30
2018-05-04T10:11:22.110Z,23.30
2018-05-04T10:13:49.626Z,23.20
2018-05-04T10:16:17.157Z,23.50
2018-05-04T10:18:44.668Z,23.90
2018-05-04T10:21:12.177Z,23.80
2018-05-04T10:23:39.711Z,23.90
2018-05-04T10:26:08.014Z,23.90
2018-05-04T10:28:35.553Z,23.90
2018-05-04T10:31:03.076Z,23.70
2018-05-04T10:33:30.595Z,24.10
2018-05-04T10:35:58.132Z,23.90
2018-05-04T10:38:26.532Z,23.90
2018-05-04T10:40:53.962Z,23.90
2018-05-04T10:43:21.475Z,23.90
2018-05-04T10:45:49.063Z,24.00
2018-05-04T10:48:16.590Z,23.80
2018-05-04T10:50:44.110Z,24.10
2018-05-04T10:53:12.484Z,24.40
2018-05-04T10:55:40.756Z,24.40
2018-05-04T10:58:08.378Z,24.30
2018-05-04T11:00:35.948Z,24.20
2018-05-04T11:03:03.479Z,23.60
2018-05-04T11:05:31.071Z,23.00
2018-05-04T11:07:58.698Z,23.10
2018-05-04T11:10:26.205Z,23.40
2018-05-04T11:12:53.741Z,23.80
2018-05-04T11:15:21.259Z,23.80
2018-05-04T11:17:48.775Z,24.00
2018-05-04T11:20:16.282Z,24.40
2018-05-04T11:22:44.579Z,24.60
2018-05-04T11:25:12.091Z,24.50
2018-05-04T11:27:39.601Z,24.50
2018-05-04T11:30:07.148Z,24.30
2018-05-04T11:32:34.664Z,24.30
2018-05-04T11:35:02.213Z,24.60
2018-05-04T11:37:29.751Z,24.50
2018-05-04T11:39:57.253Z,24.20
2018-05-04T11:42:24.840Z,24.10
2018-05-04T11:44:52.368Z,23.90
2018-05-04T11:47:19.887Z,23.80
2018-05-04T11:49:47.417Z,23.60
2018-05-04T11:52:15.686Z,24.40
2018-05-04T11:54:43.233Z,24.40
2018-05-04T11:57:10.754Z,24.10
2018-05-04T11:59:38.277Z,24.00
2018-05-04T12:02:05.820Z,24.10
2018-05-04T12:04:33.363Z,23.80
2018-05-04T12:07:00.911Z,24.20
2018-05-04T12:09:28.441Z,24.60
2018-05-04T12:11:56.036Z,25.10
2018-05-04T12:14:23.570Z,25.20
2018-05-04T12:16:51.076Z,25.20
2018-05-04T12:19:18.635Z,25.30
2018-05-04T12:21:46.146Z,25.20
2018-05-04T12:24:13.657Z,24.90
2018-05-04T12:26:41.182Z,24.60
2018-05-04T12:29:08.729Z,24.40
2018-05-04T12:31:36.242Z,24.10
2018-05-04T12:34:03.786Z,24.30
2018-05-04T12:36:31.306Z,24.80
2018-05-04T12:38:58.806Z,24.90
2018-05-04T12:41:26.347Z,24.90
2018-05-04T12:43:53.869Z,24.70
2018-05-04T12:46:21.374Z,24.80
2018-05-04T12:48:48.928Z,24.80
2018-05-04T12:51:16.434Z,24.40
2018-05-04T12:53:43.970Z,24.80
2018-05-04T12:56:11.504Z,24.90
2018-05-04T12:58:39.021Z,24.60
2018-05-04T13:01:07.295Z,24.70
2018-05-04T13:03:34.826Z,24.70
2018-05-04T13:06:02.333Z,24.60
2018-05-04T13:08:30.605Z,24.90
2018-05-04T13:10:58.909Z,24.90
2018-05-04T13:13:26.430Z,24.90
2018-05-04T13:15:53.932Z,24.80
2018-05-04T13:18:21.461Z,24.60
2018-05-04T13:20:49.751Z,24.50
2018-05-04T13:23:17.270Z,24.50
2018-05-04T13:25:44.790Z,24.50
2018-05-04T13:28:12.302Z,24.70
2018-05-04T13:30:39.831Z,24.70
2018-05-04T13:33:07.390Z,24.70
2018-05-04T13:35:34.944Z,24.30
2018-05-04T13:38:02.468Z,24.00
2018-05-04T13:40:30.048Z,24.00
2018-05-04T13:42:57.571Z,24.10
2018-05-04T13:45:25.108Z,24.30
2018-05-04T13:47:52.676Z,24.10
2018-05-04T13:50:20.190Z,24.20
2018-05-04T13:52:47.751Z,24.10
2018-05-04T13:55:15.378Z,23.70
2018-05-04T13:57:42.883Z,23.70
2018-05-04T14:00:10.399Z,23.80
2018-05-04T14:02:38.726Z,24.00
2018-05-04T14:05:06.253Z,24.00
2018-05-04T14:07:33.787Z,24.00
2018-05-04T14:10:02.116Z,23.70
2018-05-04T14:12:29.612Z,23.70
2018-05-04T14:14:57.210Z,23.20
2018-05-04T14:17:25.479Z,23.20
2018-05-04T14:19:52.993Z,23.10
2018-05-04T14:22:20.528Z,22.90
2018-05-04T14:24:48.070Z,23.10
2018-05-04T14:27:15.713Z,22.90
2018-05-04T14:29:43.272Z,22.80
2018-05-04T14:32:11.893Z,22.90
2018-05-04T14:34:39.638Z,22.90
2018-05-04T14:37:07.930Z,23.10
2018-05-04T14:39:35.450Z,23.10
2018-05-04T14:42:04.542Z,23.00
2018-05-04T14:44:32.067Z,23.00
2018-05-04T14:46:59.694Z,22.40
2018-05-04T14:49:27.203Z,22.10
2018-05-04T14:51:55.837Z,22.50
2018-05-04T14:54:23.373Z,22.50
2018-05-04T14:56:50.890Z,22.50
2018-05-04T14:59:19.188Z,22.30
2018-05-04T15:01:46.728Z,22.30
2018-05-04T15:04:14.237Z,22.40
2018-05-04T15:06:41.834Z,22.30
2018-05-04T15:09:09.344Z,22.30
2018-05-04T15:11:36.883Z,22.10
2018-05-04T15:14:04.402Z,21.90
2018-05-04T15:16:31.930Z,21.90
2018-05-04T15:18:59.444Z,22.00
2018-05-04T15:21:27.792Z,22.10
2018-05-04T15:23:55.317Z,22.10
2018-05-04T15:26:22.849Z,22.00
2018-05-04T15:28:50.370Z,22.00
2018-05-04T15:31:17.922Z,22.10
2018-05-04T15:33:45.438Z,21.90
2018-05-04T15:36:12.991Z,21.70
2018-05-04T15:38:40.508Z,21.60
2018-05-04T15:41:08.018Z,21.50
2018-05-04T15:43:35.542Z,21.50
2018-05-04T15:46:03.075Z,21.30
2018-05-04T15:51:36.275Z,21.60
2018-05-04T15:54:03.827Z,21.60
2018-05-04T15:56:31.346Z,21.40
2018-05-04T15:58:58.873Z,21.40
2018-05-04T16:01:26.414Z,21.40
2018-05-04T16:03:53.914Z,21.20
2018-05-04T16:06:21.431Z,21.10
2018-05-04T16:08:48.967Z,21.00
2018-05-04T16:11:16.483Z,21.10
2018-05-04T16:13:44.081Z,21.10
2018-05-04T16:16:11.569Z,21.00
2018-05-04T16:18:39.096Z,20.50
2018-05-04T16:21:06.636Z,20.60
2018-05-04T16:23:34.177Z,20.50
2018-05-04T16:26:01.694Z,20.60
2018-05-04T16:28:29.223Z,20.50
2018-05-04T16:30:56.788Z,20.50
2018-05-04T16:33:24.277Z,20.30
2018-05-04T16:35:51.833Z,20.30
2018-05-04T16:38:19.367Z,20.40
2018-05-04T16:40:46.918Z,20.30
2018-05-04T16:43:14.465Z,20.30
2018-05-04T16:45:41.973Z,20.30
2018-05-04T16:48:15.270Z,20.20
2018-05-04T16:50:42.815Z,20.20
2018-05-04T16:53:11.071Z,20.10
2018-05-04T16:55:38.623Z,20.00
2018-05-04T16:58:06.922Z,20.10
2018-05-04T17:00:34.454Z,20.00
2018-05-04T17:03:01.986Z,20.00
2018-05-04T17:05:29.516Z,20.00
2018-05-04T17:07:57.073Z,19.90
2018-05-04T17:10:24.627Z,19.90
2018-05-04T17:12:52.911Z,19.70
2018-05-04T17:15:20.452Z,19.70
2018-05-04T17:17:48.791Z,19.50
2018-05-04T17:20:16.322Z,19.50
2018-05-04T17:22:43.923Z,19.40
2018-05-04T17:25:11.467Z,19.40
2018-05-04T17:27:39.444Z,19.30
2018-05-04T17:30:06.951Z,19.30
2018-05-04T17:32:34.487Z,19.30
2018-05-04T17:35:02.014Z,19.20
2018-05-04T17:37:29.828Z,19.20
2018-05-04T17:39:58.168Z,19.10
2018-05-04T17:42:25.675Z,19.10
2018-05-04T17:44:53.181Z,19.10
2018-05-04T17:47:20.775Z,19.10
2018-05-04T17:49:48.266Z,19.10
2018-05-04T17:52:15.810Z,19.00
2018-05-04T17:54:44.179Z,18.90
2018-05-04T17:57:11.785Z,18.90
2018-05-04T17:59:39.287Z,18.90
2018-05-04T18:02:06.830Z,18.80
2018-05-04T18:04:34.333Z,18.80
2018-05-04T18:07:01.898Z,18.80
2018-05-04T18:09:29.435Z,18.70
2018-05-04T18:11:57.555Z,18.70
2018-05-04T18:14:25.106Z,18.60
2018-05-04T18:16:52.694Z,18.60
2018-05-04T18:19:20.219Z,18.60
2018-05-04T18:21:48.494Z,18.50
2018-05-04T18:24:16.316Z,18.50
2018-05-04T18:26:44.120Z,18.40
2018-05-04T18:29:12.398Z,18.30
2018-05-04T18:31:40.759Z,18.30
2018-05-04T18:34:08.273Z,18.30
2018-05-04T18:36:35.775Z,18.30
2018-05-04T18:39:03.326Z,18.20
2018-05-04T18:41:31.691Z,18.10
2018-05-04T18:43:59.841Z,18.10
2018-05-04T18:46:27.379Z,18.00
2018-05-04T18:48:56.563Z,17.90
2018-05-04T18:51:24.398Z,17.90
2018-05-04T18:53:51.941Z,17.90
2018-05-04T18:56:19.474Z,17.90
2018-05-04T18:58:47.799Z,17.80
2018-05-04T19:01:15.390Z,17.70
2018-05-04T19:03:42.902Z,17.70
2018-05-04T19:06:10.446Z,17.70
2018-05-04T19:08:37.984Z,17.60
2018-05-04T19:11:05.567Z,17.60
2018-05-04T19:13:33.092Z,17.50
2018-05-04T19:16:00.654Z,17.50
2018-05-04T19:18:28.211Z,17.40
2018-05-04T19:20:56.244Z,17.30
2018-05-04T19:23:23.748Z,17.30
2018-05-04T19:25:51.276Z,17.20
2018-05-04T19:28:18.802Z,17.20
2018-05-04T19:30:46.312Z,17.10
2018-05-04T19:33:13.900Z,17.10
2018-05-04T19:35:42.183Z,17.00
2018-05-04T19:38:10.558Z,17.00
2018-05-04T19:40:38.878Z,17.00
2018-05-04T19:43:06.374Z,16.90
2018-05-04T19:45:33.930Z,16.90
2018-05-04T19:48:01.547Z,16.80
2018-05-04T19:50:29.067Z,16.80
2018-05-04T19:52:56.585Z,16.70
2018-05-04T19:55:24.116Z,16.70
2018-05-04T19:57:52.377Z,16.60
2018-05-04T20:00:19.924Z,16.60
2018-05-04T20:02:47.581Z,16.60
2018-05-04T20:05:15.042Z,16.60
2018-05-04T20:07:42.563Z,16.50
2018-05-04T20:10:10.107Z,16.50
2018-05-04T20:12:37.732Z,16.40
2018-05-04T20:15:05.484Z,16.40
2018-05-04T20:17:33.125Z,16.40
2018-05-04T20:20:01.378Z,16.30
2018-05-04T20:22:28.878Z,16.30
2018-05-04T20:24:56.457Z,16.30
2018-05-04T20:27:23.991Z,16.20
2018-05-04T20:29:51.506Z,16.10
2018-05-04T20:32:19.088Z,16.10
2018-05-04T20:34:46.593Z,16.10
2018-05-04T20:37:14.127Z,16.00
2018-05-04T20:39:41.666Z,16.00
2018-05-04T20:42:09.282Z,16.00
2018-05-04T20:44:38.338Z,15.90
2018-05-04T20:47:05.864Z,15.90
2018-05-04T20:49:34.146Z,15.80
2018-05-04T20:52:01.720Z,15.80
2018-05-04T20:54:29.235Z,15.70
2018-05-04T20:56:56.752Z,15.70
2018-05-04T20:59:24.283Z,15.70
2018-05-04T21:01:51.829Z,15.70
2018-05-04T21:04:19.335Z,15.60
2018-05-04T21:06:46.877Z,15.60
2018-05-04T21:09:14.436Z,15.60
2018-05-04T21:11:42.732Z,15.40
2018-05-04T21:14:10.276Z,15.40
2018-05-04T21:16:37.826Z,15.40
2018-05-04T21:19:06.135Z,15.40
2018-05-04T21:21:33.658Z,15.40
2018-05-04T21:24:01.935Z,15.30
2018-05-04T21:26:29.474Z,15.30
2018-05-04T21:28:57.000Z,15.30
2018-05-04T21:31:24.616Z,15.20
2018-05-04T21:33:52.158Z,15.10
2018-05-04T21:36:19.670Z,15.10
2018-05-04T21:38:47.232Z,15.10
2018-05-04T21:41:14.767Z,15.10
2018-05-04T21:43:42.601Z,15.00
2018-05-04T21:46:10.220Z,15.00
2018-05-04T21:48:37.748Z,15.00
2018-05-04T21:51:05.316Z,14.90
2018-05-04T21:53:33.191Z,14.80
2018-05-04T21:56:00.738Z,14.80
2018-05-04T21:58:28.277Z,14.80
2018-05-04T22:00:56.245Z,14.80
2018-05-04T22:03:25.286Z,14.70
2018-05-04T22:05:52.810Z,14.70
2018-05-04T22:08:20.322Z,14.70
2018-05-04T22:10:47.882Z,14.60
2018-05-04T22:13:15.406Z,14.60
2018-05-04T22:15:42.943Z,14.60
2018-05-04T22:18:10.545Z,14.60
2018-05-04T22:20:38.051Z,14.40
2018-05-04T22:23:06.176Z,14.40
2018-05-04T22:25:33.708Z,14.40
2018-05-04T22:28:01.230Z,14.40
2018-05-04T22:30:29.516Z,14.30
2018-05-04T22:32:57.030Z,14.30
2018-05-04T22:35:25.359Z,14.30
2018-05-04T22:37:52.871Z,14.30
2018-05-04T22:40:21.157Z,14.30
2018-05-04T22:42:48.666Z,14.30
2018-05-04T22:45:16.179Z,14.20
2018-05-04T22:47:43.733Z,14.20
2018-05-04T22:50:11.251Z,14.20
2018-05-04T22:52:38.787Z,14.10
2018-05-04T22:55:06.311Z,14.00
2018-05-04T22:57:33.831Z,14.00
2018-05-04T23:00:01.374Z,14.00
2018-05-04T23:02:28.886Z,14.00
2018-05-04T23:04:56.398Z,13.90
2018-05-04T23:07:23.950Z,13.90
2018-05-04T23:09:51.515Z,13.90
2018-05-04T23:12:19.025Z,13.90
2018-05-04T23:14:46.559Z,13.90
2018-05-04T23:17:14.074Z,13.80
2018-05-04T23:19:42.359Z,13.80
2018-05-04T23:22:09.890Z,13.70
2018-05-04T23:24:37.639Z,13.70
2018-05-04T23:27:05.186Z,13.70
2018-05-04T23:29:32.738Z,13.60
2018-05-04T23:32:00.266Z,13.60
2018-05-04T23:34:27.843Z,13.60
2018-05-04T23:36:55.344Z,13.60
2018-05-04T23:39:22.855Z,13.50
2018-05-04T23:41:50.371Z,13.40
2018-05-04T23:44:19.359Z,13.40
2018-05-04T23:46:46.903Z,13.40
2018-05-04T23:49:14.460Z,13.40
2018-05-04T23:51:41.982Z,13.40
2018-05-04T23:54:09.509Z,13.40
2018-05-04T23:56:37.114Z,13.40
2018-05-04T23:59:04.621Z,13.40
